DuBois Regional Airport Dubois US
ICAO: KDUJ
IATA: DUJ
Category: Medium
Scheduled Services: Yes

Elevation: 1817 ft
TransAlt. 18000 ft.

Airport Communications:
ASOS:119.025
CLEVELAND CNTR:126.72
CTAF:123
ALTOONA RDO:122.2
UNICOM:123

KDUJ Zoom In..

Runways:

(A) RW 07 length 5503 ft width 100 ft
---- / hdg 72

(B) RW 25 length 5503 ft width 100 ft
ILS 109.90 / hdg 252

Location; KDUJ
Day. 09 / Time. 22.53 Zulu
* Altimeter: 29.96
* Temperature: 29° c. 84.2°f.
* Wind from: 120° Speed 05 kn.
Dewpoint: 18° c.
Visibility: 10 Statute Miles.
Clouds: Clear (automated report).

KDUJ 092253Z AUTO 12005KT 10SM CLR 29/18 A2996 RMK AO2 SLP128 T02890183

Going to: --> -->


Wind From 120°
Speed 05 kn.

 
 
jpsmedia worldairports.se 2020   terms of use